Plattsmouth, NE

4:13 PM CDT on July 26, 2017 (GMT -0500)
Plattsmouth Municipal

Weather History for KPMV - January, 2014

Change the Weather History Date:

Friday, January 24, 2014

  Actual Average (KOFF) Record (KOFF)
Temperature  
Mean Temperature 30 °F -  
Max Temperature 50 °F 31 °F 55 °F (2015)
Min Temperature 10 °F 14 °F -13 °F (2008)
Degree Days  
Heating Degree Days 35    
Moisture  
Dew Point 11 °F    
Average Humidity 43    
Maximum Humidity 58    
Minimum Humidity 26    
Precipitation  
Precipitation 0.00 in - - ()
Sea Level Pressure  
Sea Level Pressure 29.98 in    
Wind  
Wind Speed 16 mph (SW)    
Max Wind Speed 29 mph    
Max Gust Speed 41 mph    
Visibility 10 miles    
Events      
Averages and records for this station are not official NWS values.
T = Trace of Precipitation, MM = Missing Value Source: NWS Daily Summary

Daily Weather History Graph

Daily Weather History Graph

Search for Another Location

Airport or City:

Trip Planner

Search our weather history database for the weather conditions in past years. The results will help you decide how hot, cold, wet, or windy it might be!

Date:

Astronomy

Jan. 24, 2014 Rise Set
Actual Time 7:40 AM CST 5:31 PM CST
Civil Twilight 7:11 AM CST 6:00 PM CST
Nautical Twilight 6:38 AM CST 6:34 PM CST
Astronomical Twilight 6:05 AM CST 7:06 PM CST
Moon 1:08 AM CST (1/24) 11:50 AM CST (1/24)
Length of Visible Light 10h 49m
Length of Day
9h 50m
Last Quarter, 44% of the Moon is Illuminated
Jan 24
Last Quarter
Jan 30
New
Feb 6
First Quarter
Feb 14
Full
Feb 22
Last Quarter

Hourly Weather History & Observations

Time (CST) Temp. Windchill Dew Point Humidity Pressure Visibility Wind Dir Wind Speed Gust Speed Precip Events Conditions
12:15 AM 11.3 °F -4.9 °F -9.4 °F 39% 30.46 in 10.0 mi SSW 15.0 mph 19.6 mph N/A   Clear
12:35 AM 10.8 °F -6.2 °F -8.9 °F 41% 30.44 in 10.0 mi SSW 16.1 mph 21.9 mph N/A   Clear
12:55 AM 10.4 °F -6.6 °F -8.7 °F 42% 30.42 in 10.0 mi SSW 16.1 mph - N/A   Clear
1:15 AM 10.4 °F -6.0 °F -8.7 °F 42% 30.41 in 10.0 mi SSW 15.0 mph - N/A   Clear
1:35 AM 10.6 °F -5.2 °F -8.5 °F 42% 30.40 in 10.0 mi South 13.8 mph - N/A   Clear
1:55 AM 11.3 °F -6.0 °F -8.5 °F 41% 30.37 in 10.0 mi South 17.3 mph - N/A   Clear
2:15 AM 12.4 °F -4.1 °F -8.7 °F 39% 30.37 in 10.0 mi SSW 16.1 mph 23.0 mph N/A   Clear
2:35 AM 13.1 °F -3.7 °F -8.5 °F 38% 30.35 in 10.0 mi SSW 17.3 mph 23.0 mph N/A   Clear
2:55 AM 13.6 °F -1.9 °F -8.0 °F 38% 30.34 in 10.0 mi SSW 15.0 mph - N/A   Clear
3:15 AM 14.2 °F -2.7 °F -6.9 °F 39% 30.31 in 10.0 mi SSW 18.4 mph 24.2 mph N/A   Clear
3:35 AM 14.0 °F -3.0 °F -6.9 °F 39% 30.29 in 10.0 mi SSW 18.4 mph - N/A   Clear
3:55 AM 14.0 °F -1.4 °F -6.5 °F 40% 30.26 in 10.0 mi South 15.0 mph - N/A   Clear
4:15 AM 14.0 °F -2.0 °F -5.1 °F 43% 30.24 in 10.0 mi SSW 16.1 mph - N/A   Clear
4:35 AM 14.4 °F -0.4 °F -4.0 °F 44% 30.22 in 10.0 mi South 13.8 mph 23.0 mph N/A   Clear
4:55 AM 14.7 °F -1.6 °F -2.4 °F 47% 30.20 in 10.0 mi SSW 17.3 mph - N/A   Clear
5:15 AM 15.4 °F 0.4 °F -0.9 °F 48% 30.20 in 10.0 mi SSW 15.0 mph 21.9 mph N/A   Clear
5:35 AM 15.8 °F 0.9 °F -0.0 °F 50% 30.20 in 10.0 mi SW 15.0 mph 19.6 mph N/A   Clear
5:55 AM 15.4 °F -0.1 °F 0.5 °F 52% 30.17 in 10.0 mi SSW 16.1 mph 21.9 mph N/A   Clear
6:15 AM 15.8 °F -0.2 °F 1.6 °F 54% 30.16 in 10.0 mi SSW 17.3 mph 20.7 mph N/A   Clear
6:35 AM 17.2 °F -0.4 °F 2.7 °F 53% 30.12 in 10.0 mi SSW 23.0 mph 28.8 mph N/A   Clear
6:55 AM 17.1 °F -1.4 °F 3.2 °F 55% 30.11 in 10.0 mi SSW 25.3 mph 31.1 mph N/A   Clear
7:15 AM 17.4 °F -0.2 °F 3.7 °F 55% 30.10 in 10.0 mi SSW 23.0 mph 29.9 mph N/A   Clear
7:35 AM 17.4 °F 0.2 °F 4.1 °F 56% 30.07 in 10.0 mi SSW 21.9 mph 27.6 mph N/A   Clear
7:55 AM 18.0 °F 2.2 °F 4.8 °F 57% 30.07 in 10.0 mi SSW 18.4 mph - N/A   Clear
8:15 AM 18.5 °F 3.8 °F 5.5 °F 57% 30.08 in 10.0 mi SW 16.1 mph 25.3 mph N/A   Clear
8:35 AM 19.6 °F 6.8 °F 6.3 °F 56% 30.08 in 10.0 mi SW 12.7 mph 23.0 mph N/A   Clear
8:55 AM 21.0 °F 6.2 °F 6.8 °F 54% 30.06 in 10.0 mi SW 18.4 mph 24.2 mph N/A   Clear
9:15 AM 22.6 °F 9.2 °F 7.0 °F 51% 30.06 in 10.0 mi SW 16.1 mph 23.0 mph N/A   Clear
9:35 AM 23.7 °F 10.1 °F 6.8 °F 49% 30.05 in 10.0 mi SW 17.3 mph - N/A   Clear
9:55 AM 25.0 °F 11.3 °F 7.0 °F 46% 30.03 in 10.0 mi SW 18.4 mph 26.5 mph N/A   Clear
10:15 AM 26.2 °F 13.0 °F 6.6 °F 43% 30.03 in 10.0 mi SW 18.4 mph 25.3 mph N/A   Clear
10:35 AM 27.0 °F 14.7 °F 6.6 °F 42% 30.03 in 10.0 mi SW 16.1 mph 21.9 mph N/A   Clear
10:55 AM 29.3 °F 17.3 °F 6.6 °F 38% 30.02 in 10.0 mi SW 17.3 mph - N/A   Clear
11:15 AM 31.6 °F 21.6 °F 6.6 °F 35% 30.01 in 10.0 mi WSW 13.8 mph - N/A   Clear
11:35 AM 33.1 °F 22.6 °F 6.3 °F 32% 29.98 in 10.0 mi SW 16.1 mph 20.7 mph N/A   Scattered Clouds
11:55 AM 33.8 °F 23.9 °F 6.6 °F 32% 29.97 in 10.0 mi SW 15.0 mph 19.6 mph N/A   Mostly Cloudy
12:15 PM 36.3 °F 26.8 °F 7.7 °F 30% 29.94 in 10.0 mi SW 16.1 mph 21.9 mph N/A   Mostly Cloudy
12:35 PM 38.7 °F 29.5 °F 8.4 °F 29% 29.93 in 10.0 mi SW 17.3 mph - N/A   Scattered Clouds
12:55 PM 40.5 °F 32.1 °F 9.5 °F 28% 29.91 in 10.0 mi WSW 16.1 mph 20.7 mph N/A   Scattered Clouds
1:15 PM 42.3 °F 34.1 °F 10.2 °F 27% 29.89 in 10.0 mi WSW 17.3 mph 20.7 mph N/A   Mostly Cloudy
1:35 PM 43.7 °F 35.7 °F 10.6 °F 26% 29.88 in 10.0 mi SW 18.4 mph 23.0 mph N/A   Mostly Cloudy
1:55 PM 43.9 °F 36.5 °F 10.9 °F 26% 29.87 in 10.0 mi SW 16.1 mph 23.0 mph N/A   Scattered Clouds
2:15 PM 44.6 °F 37.4 °F 12.2 °F 27% 29.85 in 10.0 mi SW 16.1 mph 23.0 mph N/A   Mostly Cloudy
2:35 PM 45.5 °F 38.9 °F 13.6 °F 28% 29.84 in 10.0 mi SW 15.0 mph 21.9 mph N/A   Scattered Clouds
2:55 PM 45.9 °F 39.4 °F 14.7 °F 29% 29.82 in 10.0 mi SW 15.0 mph - N/A   Scattered Clouds
3:15 PM 45.5 °F 38.9 °F 14.0 °F 28% 29.81 in 10.0 mi SSW 15.0 mph - N/A   Mostly Cloudy
3:35 PM 45.9 °F 39.7 °F 14.7 °F 29% 29.80 in 10.0 mi SW 13.8 mph - N/A   Overcast
3:55 PM 46.8 °F - 15.8 °F 29% 29.79 in 10.0 mi SW 13.8 mph 18.4 mph N/A   Overcast
4:15 PM 47.7 °F - 17.1 °F 30% 29.79 in 10.0 mi SW 11.5 mph - N/A   Overcast
4:35 PM 50.2 °F - 23.5 °F 35% 29.79 in 10.0 mi West 18.4 mph 23.0 mph N/A   Overcast
4:55 PM 50.4 °F - 24.3 °F 36% 29.77 in 10.0 mi WSW 10.4 mph - N/A   Overcast
5:15 PM 50.0 °F - 23.9 °F 36% 29.76 in 10.0 mi WSW 11.5 mph - N/A   Overcast
5:35 PM 49.5 °F - 24.6 °F 38% 29.76 in 10.0 mi WSW 15.0 mph - N/A   Overcast
5:55 PM 50.0 °F - 24.4 °F 37% 29.75 in 10.0 mi West 15.0 mph 19.6 mph N/A   Overcast
6:15 PM 50.4 °F - 24.3 °F 36% 29.75 in 10.0 mi WSW 12.7 mph 19.6 mph N/A   Overcast
6:35 PM 50.0 °F - 25.3 °F 38% 29.74 in 10.0 mi WSW 18.4 mph 23.0 mph N/A   Overcast
6:55 PM 50.2 °F - 26.6 °F 40% 29.72 in 10.0 mi WSW 15.0 mph - N/A   Overcast
7:15 PM 50.5 °F - 26.8 °F 40% 29.72 in 10.0 mi West 18.4 mph 21.9 mph N/A   Overcast
7:35 PM 50.4 °F - 27.5 °F 41% 29.72 in 10.0 mi WSW 18.4 mph 23.0 mph N/A   Overcast
7:55 PM 50.2 °F - 29.3 °F 45% 29.71 in 10.0 mi West 16.1 mph - N/A   Light Drizzle
8:15 PM 48.6 °F - 32.0 °F 53% 29.71 in 10.0 mi West 11.5 mph - N/A   Light Drizzle
8:35 PM 49.8 °F - 33.8 °F 54% 29.71 in 10.0 mi West 15.0 mph 23.0 mph N/A   Light Drizzle
8:55 PM 50.0 °F - 34.7 °F 56% 29.70 in 10.0 mi West 13.8 mph 23.0 mph N/A   Light Drizzle
9:15 PM 48.6 °F - 34.2 °F 58% 29.70 in 10.0 mi West 12.7 mph - N/A   Overcast
9:35 PM 48.2 °F - 33.8 °F 58% 29.70 in 10.0 mi West 12.7 mph 18.4 mph N/A   Overcast
9:55 PM 49.3 °F - 33.4 °F 54% 29.70 in 10.0 mi West 11.5 mph - N/A   Overcast
10:15 PM 50.9 °F - 33.4 °F 51% 29.70 in 10.0 mi WNW 16.1 mph 21.9 mph N/A   Overcast
10:35 PM 50.9 °F - 33.6 °F 52% 29.71 in 10.0 mi NW 25.3 mph 31.1 mph N/A   Overcast
10:55 PM 50.2 °F - 32.0 °F 50% 29.72 in 10.0 mi NW 25.3 mph 41.4 mph N/A   Overcast
11:15 PM 49.3 °F - 32.0 °F 51% 29.74 in 10.0 mi NW 28.8 mph 40.3 mph N/A   Overcast
11:35 PM 48.4 °F - 32.0 °F 53% 29.74 in 10.0 mi NW 21.9 mph 29.9 mph N/A   Overcast
11:55 PM 47.5 °F - 32.0 °F 55% 29.76 in 10.0 mi NNW 25.3 mph 33.4 mph N/A   Overcast